createdAt,value
2017-09-07T00:01:00.745Z,14.23
2017-09-07T00:03:30.154Z,14.17
2017-09-07T00:05:59.485Z,14.23
2017-09-07T00:08:28.960Z,14.13
2017-09-07T00:10:58.378Z,14.15
2017-09-07T00:13:27.744Z,14.13
2017-09-07T00:15:57.388Z,14.12
2017-09-07T00:18:26.747Z,14.05
2017-09-07T00:20:56.214Z,14.05
2017-09-07T00:23:25.511Z,14.08
2017-09-07T00:25:54.993Z,14.00
2017-09-07T00:28:24.393Z,14.06
2017-09-07T00:30:53.810Z,14.04
2017-09-07T00:33:23.165Z,14.00
2017-09-07T00:35:52.920Z,14.00
2017-09-07T00:38:22.234Z,13.94
2017-09-07T00:40:51.571Z,14.00
2017-09-07T00:43:20.984Z,13.95
2017-09-07T00:45:50.501Z,13.94
2017-09-07T00:48:19.865Z,13.93
2017-09-07T00:50:49.374Z,13.92
2017-09-07T00:53:18.831Z,13.93
2017-09-07T00:55:48.173Z,13.90
2017-09-07T00:58:17.612Z,13.86
2017-09-07T01:00:47.176Z,13.83
2017-09-07T01:03:16.535Z,13.79
2017-09-07T01:05:45.931Z,13.77
2017-09-07T01:08:15.257Z,13.75
2017-09-07T01:10:44.736Z,13.79
2017-09-07T01:13:14.040Z,13.76
2017-09-07T01:15:43.394Z,13.65
2017-09-07T01:18:12.962Z,13.62
2017-09-07T01:20:42.569Z,13.65
2017-09-07T01:23:11.921Z,13.57
2017-09-07T01:25:41.258Z,13.57
2017-09-07T01:28:10.604Z,13.62
2017-09-07T01:30:39.933Z,13.55
2017-09-07T01:33:09.446Z,13.49
2017-09-07T01:35:38.772Z,13.46
2017-09-07T01:38:09.856Z,13.43
2017-09-07T01:40:39.536Z,13.46
2017-09-07T01:43:09.084Z,13.41
2017-09-07T01:45:38.476Z,13.37
2017-09-07T01:48:16.993Z,13.37
2017-09-07T01:50:46.641Z,13.34
2017-09-07T01:53:15.937Z,13.35
2017-09-07T01:55:45.351Z,13.35
2017-09-07T01:58:14.664Z,13.24
2017-09-07T02:00:44.540Z,13.30
2017-09-07T02:03:14.160Z,13.30
2017-09-07T02:05:43.672Z,13.29
2017-09-07T02:08:13.044Z,13.28
2017-09-07T02:10:42.495Z,13.22
2017-09-07T02:13:11.827Z,13.20
2017-09-07T02:15:41.200Z,13.20
2017-09-07T02:18:10.556Z,13.22
2017-09-07T02:20:39.967Z,13.19
2017-09-07T02:23:09.572Z,13.17
2017-09-07T02:25:39.116Z,13.18
2017-09-07T02:28:08.608Z,13.13
2017-09-07T02:30:37.961Z,13.12
2017-09-07T02:33:07.315Z,13.05
2017-09-07T02:35:36.708Z,13.08
2017-09-07T02:38:06.086Z,13.04
2017-09-07T02:40:35.507Z,13.09
2017-09-07T02:43:04.800Z,13.03
2017-09-07T02:45:34.643Z,13.02
2017-09-07T02:48:04.103Z,13.05
2017-09-07T02:50:33.529Z,13.11
2017-09-07T02:53:02.867Z,13.07
2017-09-07T02:55:32.295Z,13.05
2017-09-07T02:58:01.593Z,13.05
2017-09-07T03:00:30.957Z,13.03
2017-09-07T03:03:00.297Z,12.99
2017-09-07T03:05:29.740Z,13.03
2017-09-07T03:07:59.031Z,13.02
2017-09-07T03:10:28.556Z,12.98
2017-09-07T03:12:57.920Z,12.98
2017-09-07T03:15:27.572Z,12.96
2017-09-07T03:17:57.030Z,12.93
2017-09-07T03:20:26.560Z,12.90
2017-09-07T03:22:55.855Z,12.88
2017-09-07T03:25:25.228Z,12.90
2017-09-07T03:27:54.646Z,12.84
2017-09-07T03:30:24.098Z,12.84
2017-09-07T03:32:53.406Z,12.82
2017-09-07T03:35:22.758Z,12.89
2017-09-07T03:37:52.065Z,12.86
2017-09-07T03:40:21.505Z,12.87
2017-09-07T03:42:50.872Z,12.86
2017-09-07T03:45:20.454Z,12.83
2017-09-07T03:47:49.753Z,12.88
2017-09-07T03:50:19.207Z,12.89
2017-09-07T03:52:48.659Z,12.88
2017-09-07T03:55:18.193Z,12.84
2017-09-07T03:57:48.012Z,12.85
2017-09-07T04:00:17.907Z,12.79
2017-09-07T04:02:47.452Z,12.76
2017-09-07T04:05:16.807Z,12.75
2017-09-07T04:07:46.299Z,12.83
2017-09-07T04:10:15.632Z,12.79
2017-09-07T04:12:45.012Z,12.82
2017-09-07T04:15:14.962Z,12.81
2017-09-07T04:17:44.293Z,12.83
2017-09-07T04:20:13.612Z,12.85
2017-09-07T04:22:42.943Z,12.88
2017-09-07T04:25:12.455Z,12.85
2017-09-07T04:27:41.784Z,12.89
2017-09-07T04:30:11.172Z,12.91
2017-09-07T04:32:40.484Z,12.91
2017-09-07T04:35:09.864Z,12.96
2017-09-07T04:37:39.225Z,12.94
2017-09-07T04:40:08.573Z,12.98
2017-09-07T04:42:37.952Z,12.98
2017-09-07T04:45:07.423Z,13.01
2017-09-07T04:47:36.719Z,12.92
2017-09-07T04:50:06.052Z,12.93
2017-09-07T04:52:35.498Z,12.99
2017-09-07T04:55:04.984Z,12.99
2017-09-07T04:57:34.369Z,13.03
2017-09-07T05:00:03.928Z,13.05
2017-09-07T05:02:33.385Z,13.03
2017-09-07T05:05:02.777Z,13.12
2017-09-07T05:07:32.245Z,13.14
2017-09-07T05:10:01.538Z,13.17
2017-09-07T05:12:30.911Z,13.15
2017-09-07T05:15:00.197Z,13.24
2017-09-07T05:17:29.808Z,13.28
2017-09-07T05:19:59.170Z,13.39
2017-09-07T05:22:28.772Z,13.42
2017-09-07T05:24:59.172Z,13.43
2017-09-07T05:27:28.793Z,13.41
2017-09-07T05:29:58.290Z,13.50
2017-09-07T05:32:29.272Z,13.47
2017-09-07T05:35:03.312Z,13.49
2017-09-07T05:37:34.430Z,13.50
2017-09-07T05:40:04.019Z,13.54
2017-09-07T05:42:33.601Z,13.63
2017-09-07T05:45:03.127Z,13.60
2017-09-07T05:47:32.796Z,13.57
2017-09-07T05:50:02.234Z,13.62
2017-09-07T05:52:31.792Z,13.62
2017-09-07T05:55:01.576Z,13.64
2017-09-07T05:57:31.160Z,13.64
2017-09-07T06:00:01.361Z,13.64
2017-09-07T06:02:36.965Z,13.53
2017-09-07T06:05:07.535Z,13.66
2017-09-07T06:07:36.970Z,13.63
2017-09-07T06:10:06.887Z,13.66
2017-09-07T06:12:36.242Z,13.65
2017-09-07T06:15:07.992Z,13.71
2017-09-07T06:17:37.440Z,13.75
2017-09-07T06:20:07.140Z,13.86
2017-09-07T06:22:36.456Z,13.96
2017-09-07T06:25:05.852Z,14.00
2017-09-07T06:27:35.172Z,14.29
2017-09-07T06:30:04.535Z,14.81
2017-09-07T06:32:34.400Z,14.83
2017-09-07T06:35:04.501Z,14.62
2017-09-07T06:37:34.155Z,14.36
2017-09-07T06:40:03.730Z,14.28
2017-09-07T06:42:33.169Z,14.28
2017-09-07T06:45:03.129Z,14.17
2017-09-07T06:47:32.680Z,14.27
2017-09-07T06:50:02.131Z,14.23
2017-09-07T06:52:31.545Z,14.36
2017-09-07T06:55:00.824Z,14.45
2017-09-07T06:57:30.761Z,14.41
2017-09-07T07:00:00.416Z,14.46
2017-09-07T07:02:29.917Z,14.41
2017-09-07T07:04:59.428Z,14.41
2017-09-07T07:07:28.941Z,14.37
2017-09-07T07:09:58.329Z,14.34
2017-09-07T07:12:28.357Z,14.28
2017-09-07T07:14:58.182Z,14.32
2017-09-07T07:17:28.793Z,14.39
2017-09-07T07:19:58.198Z,14.46
2017-09-07T07:22:27.725Z,14.74
2017-09-07T07:24:57.345Z,14.90
2017-09-07T07:27:26.929Z,15.05
2017-09-07T07:29:56.344Z,15.15
2017-09-07T07:32:25.784Z,15.23
2017-09-07T07:34:55.142Z,15.31
2017-09-07T07:37:24.601Z,15.28
2017-09-07T07:39:54.024Z,15.39
2017-09-07T07:42:23.716Z,15.49
2017-09-07T07:44:53.043Z,15.31
2017-09-07T07:47:22.975Z,15.32
2017-09-07T07:49:52.326Z,15.33
2017-09-07T07:52:21.632Z,15.40
2017-09-07T07:54:51.334Z,15.51
2017-09-07T07:57:20.953Z,15.49
2017-09-07T07:59:50.309Z,15.49
2017-09-07T08:02:19.728Z,15.56
2017-09-07T08:04:54.240Z,15.55
2017-09-07T08:07:23.658Z,15.60
2017-09-07T08:09:53.120Z,15.54
2017-09-07T08:12:22.860Z,15.38
2017-09-07T08:14:52.354Z,15.41
2017-09-07T08:17:22.396Z,15.62
2017-09-07T08:19:52.314Z,15.78
2017-09-07T08:22:24.711Z,16.02
2017-09-07T08:24:55.372Z,16.19
2017-09-07T08:27:25.513Z,16.27
2017-09-07T08:29:55.650Z,16.23
2017-09-07T08:32:25.362Z,16.11
2017-09-07T08:34:54.680Z,16.13
2017-09-07T08:37:23.991Z,15.98
2017-09-07T08:39:53.516Z,16.04
2017-09-07T08:42:22.844Z,16.24
2017-09-07T08:44:52.192Z,16.35
2017-09-07T08:47:21.563Z,16.35
2017-09-07T08:49:51.103Z,16.14
2017-09-07T08:52:21.399Z,16.21
2017-09-07T08:54:50.945Z,16.23
2017-09-07T08:57:20.442Z,16.14
2017-09-07T08:59:49.856Z,16.10
2017-09-07T09:02:19.443Z,15.96
2017-09-07T09:04:49.137Z,16.00
2017-09-07T09:07:18.583Z,16.03
2017-09-07T09:09:48.997Z,16.12
2017-09-07T09:12:18.704Z,16.26
2017-09-07T09:14:48.248Z,16.23
2017-09-07T09:17:17.656Z,16.18
2017-09-07T09:19:47.161Z,16.21
2017-09-07T09:22:17.164Z,16.36
2017-09-07T09:24:46.995Z,16.86
2017-09-07T09:27:16.824Z,16.96
2017-09-07T09:29:46.135Z,17.10
2017-09-07T09:32:15.548Z,17.27
2017-09-07T09:34:45.056Z,17.27
2017-09-07T09:37:14.765Z,17.38
2017-09-07T09:39:44.043Z,17.69
2017-09-07T09:42:13.699Z,17.85
2017-09-07T09:44:43.279Z,18.27
2017-09-07T09:47:12.707Z,18.33
2017-09-07T09:49:42.019Z,18.05
2017-09-07T09:52:11.439Z,18.24
2017-09-07T09:54:41.403Z,18.82
2017-09-07T09:57:10.793Z,18.83
2017-09-07T09:59:40.212Z,18.84
2017-09-07T10:02:09.729Z,18.43
2017-09-07T10:04:39.209Z,18.20
2017-09-07T10:07:08.864Z,17.73
2017-09-07T10:09:38.322Z,17.55
2017-09-07T10:12:08.052Z,17.53
2017-09-07T10:14:37.332Z,17.18
2017-09-07T10:17:06.696Z,17.19
2017-09-07T10:19:36.023Z,17.06
2017-09-07T10:22:05.529Z,16.97
2017-09-07T10:24:34.944Z,16.80
2017-09-07T10:27:04.361Z,16.84
2017-09-07T10:29:33.692Z,16.77
2017-09-07T10:32:03.001Z,17.04
2017-09-07T10:34:32.420Z,17.16
2017-09-07T10:37:01.751Z,17.12
2017-09-07T10:39:31.109Z,17.32
2017-09-07T10:42:00.764Z,17.37
2017-09-07T10:44:30.049Z,17.24
2017-09-07T10:46:59.462Z,17.24
2017-09-07T10:49:28.950Z,17.08
2017-09-07T10:51:58.303Z,17.03
2017-09-07T10:54:28.099Z,16.81
2017-09-07T10:56:57.513Z,16.70
2017-09-07T10:59:26.979Z,16.72
2017-09-07T11:01:56.305Z,17.00
2017-09-07T11:04:25.771Z,17.34
2017-09-07T11:06:55.317Z,17.45
2017-09-07T11:09:24.597Z,17.55
2017-09-07T11:11:54.148Z,17.52
2017-09-07T11:14:23.612Z,17.36
2017-09-07T11:16:53.363Z,17.32
2017-09-07T11:19:22.648Z,17.27
2017-09-07T11:21:52.168Z,17.20
2017-09-07T11:24:21.529Z,17.08
2017-09-07T11:26:50.929Z,17.04
2017-09-07T11:29:20.670Z,16.99
2017-09-07T11:31:50.233Z,16.69
2017-09-07T11:34:20.604Z,16.47
2017-09-07T11:36:50.189Z,16.24
2017-09-07T11:39:19.512Z,16.21
2017-09-07T11:41:49.015Z,16.12
2017-09-07T11:44:18.461Z,16.16
2017-09-07T11:46:47.797Z,16.18
2017-09-07T11:49:17.084Z,16.24
2017-09-07T11:51:46.441Z,16.25
2017-09-07T11:54:15.812Z,16.30
2017-09-07T11:56:51.877Z,16.41
2017-09-07T11:59:21.248Z,16.53
2017-09-07T12:01:50.803Z,16.52
2017-09-07T12:04:20.175Z,16.39
2017-09-07T12:06:49.527Z,16.47
2017-09-07T12:09:18.903Z,16.38
2017-09-07T12:11:48.329Z,16.47
2017-09-07T12:14:17.644Z,16.64
2017-09-07T12:17:03.425Z,16.65
2017-09-07T12:19:32.720Z,16.54
2017-09-07T12:22:02.562Z,16.56
2017-09-07T12:24:31.912Z,16.44
2017-09-07T12:27:01.365Z,16.40
2017-09-07T12:29:30.700Z,16.38
2017-09-07T12:32:00.196Z,16.30
2017-09-07T12:34:29.683Z,16.22
2017-09-07T12:36:59.280Z,16.25
2017-09-07T12:39:28.819Z,16.26
2017-09-07T12:41:58.248Z,16.31
2017-09-07T12:44:28.132Z,16.37
2017-09-07T12:46:57.716Z,16.39
2017-09-07T12:49:27.045Z,16.52
2017-09-07T12:51:56.515Z,16.43
2017-09-07T12:54:25.879Z,16.53
2017-09-07T12:56:55.249Z,16.62
2017-09-07T12:59:24.524Z,16.66
2017-09-07T13:01:53.840Z,16.59
2017-09-07T13:04:23.121Z,16.58
2017-09-07T13:06:52.654Z,16.57
2017-09-07T13:09:22.175Z,16.50
2017-09-07T13:11:51.845Z,16.48
2017-09-07T13:14:21.177Z,16.39
2017-09-07T13:16:50.654Z,16.34
2017-09-07T13:19:19.982Z,16.24
2017-09-07T13:21:49.377Z,16.15
2017-09-07T13:24:18.749Z,15.93
2017-09-07T13:26:48.203Z,15.90
2017-09-07T13:29:17.759Z,15.92
2017-09-07T13:31:47.282Z,15.84
2017-09-07T13:34:16.727Z,15.77
2017-09-07T13:36:46.067Z,15.75
2017-09-07T13:39:15.368Z,15.69
2017-09-07T13:41:44.815Z,15.68
2017-09-07T13:44:14.129Z,15.68
2017-09-07T13:46:43.715Z,15.76
2017-09-07T13:49:13.316Z,15.77
2017-09-07T13:51:42.654Z,15.91
2017-09-07T13:54:11.925Z,16.01
2017-09-07T13:56:41.287Z,16.14
2017-09-07T13:59:10.575Z,16.07
2017-09-07T14:01:41.004Z,16.11
2017-09-07T14:04:10.584Z,16.22
2017-09-07T14:06:39.893Z,16.14
2017-09-07T14:09:09.355Z,16.11
2017-09-07T14:11:38.678Z,16.08
2017-09-07T14:14:08.112Z,16.21
2017-09-07T14:16:37.536Z,16.30
2017-09-07T14:19:06.947Z,16.28
2017-09-07T14:21:36.340Z,16.20
2017-09-07T14:24:05.832Z,16.20
2017-09-07T14:26:35.400Z,16.17
2017-09-07T14:29:04.755Z,16.10
2017-09-07T14:31:34.289Z,16.03
2017-09-07T14:34:03.848Z,16.00
2017-09-07T14:36:33.141Z,15.96
2017-09-07T14:39:02.424Z,16.05
2017-09-07T14:41:31.808Z,15.99
2017-09-07T14:44:01.246Z,15.97
2017-09-07T14:46:30.771Z,15.95
2017-09-07T14:49:00.245Z,15.98
2017-09-07T14:51:29.816Z,16.05
2017-09-07T14:53:59.085Z,16.06
2017-09-07T14:56:28.623Z,16.19
2017-09-07T14:58:58.007Z,16.23
2017-09-07T15:01:27.568Z,16.24
2017-09-07T15:03:56.864Z,16.16
2017-09-07T15:06:26.196Z,16.07
2017-09-07T15:08:55.676Z,16.14
2017-09-07T15:11:24.967Z,16.17
2017-09-07T15:13:54.545Z,16.23
2017-09-07T15:16:24.040Z,16.21
2017-09-07T15:18:53.595Z,16.28
2017-09-07T15:21:22.949Z,16.31
2017-09-07T15:23:52.253Z,16.38
2017-09-07T15:26:22.033Z,16.30
2017-09-07T15:28:51.505Z,16.37
2017-09-07T15:31:21.036Z,16.44
2017-09-07T15:33:50.318Z,16.42
2017-09-07T15:36:19.837Z,16.37
2017-09-07T15:38:49.199Z,16.39
2017-09-07T15:41:18.625Z,16.32
2017-09-07T15:43:47.953Z,16.32
2017-09-07T15:46:17.281Z,16.27
2017-09-07T15:48:46.568Z,16.27
2017-09-07T15:51:15.905Z,16.26
2017-09-07T15:53:46.033Z,16.26
2017-09-07T15:56:15.408Z,16.23
2017-09-07T15:58:44.681Z,16.19
2017-09-07T16:01:14.076Z,16.16
2017-09-07T16:03:43.696Z,16.11
2017-09-07T16:06:13.054Z,16.07
2017-09-07T16:08:42.612Z,16.11
2017-09-07T16:11:12.093Z,16.03
2017-09-07T16:13:41.526Z,16.07
2017-09-07T16:16:10.825Z,16.03
2017-09-07T16:18:41.402Z,15.97
2017-09-07T16:21:11.188Z,16.03
2017-09-07T16:23:40.531Z,16.05
2017-09-07T16:26:09.961Z,16.08
2017-09-07T16:28:39.279Z,16.07
2017-09-07T16:31:08.778Z,16.15
2017-09-07T16:33:38.067Z,16.16
